createdAt,value
2022-08-22T00:00:01.791Z,90.28
2022-08-22T00:02:45.056Z,79.43
2022-08-22T00:02:55.977Z,80.51
2022-08-22T00:03:00.234Z,84.48
2022-08-22T00:03:12.285Z,79.09
2022-08-22T00:04:20.810Z,90.05
2022-08-22T00:05:42.566Z,90.43
2022-08-22T00:06:58.704Z,90.14
2022-08-22T00:08:13.364Z,89.94
2022-08-22T00:09:37.219Z,89.74
2022-08-22T00:10:55.324Z,89.66
2022-08-22T00:12:01.081Z,89.78
2022-08-22T00:13:13.164Z,89.47
2022-08-22T00:14:33.807Z,89.65
2022-08-22T00:15:45.731Z,89.15
2022-08-22T00:16:54.502Z,89.28
2022-08-22T00:18:21.662Z,89.15
2022-08-22T00:19:36.543Z,89.23
2022-08-22T00:20:48.192Z,89.17
2022-08-22T00:21:59.812Z,89.16
2022-08-22T00:23:24.090Z,89.20
2022-08-22T00:24:35.863Z,89.18
2022-08-22T00:25:41.713Z,89.05
2022-08-22T00:27:00.067Z,89.34
2022-08-22T00:28:11.967Z,89.51
2022-08-22T00:29:20.907Z,89.55
2022-08-22T00:30:25.655Z,90.58
2022-08-22T00:31:40.387Z,90.59
2022-08-22T00:32:49.129Z,90.11
2022-08-22T00:34:04.324Z,89.64
2022-08-22T00:35:18.968Z,88.85
2022-08-22T00:36:47.723Z,88.81
2022-08-22T00:39:30.374Z,88.74
2022-08-22T00:40:36.937Z,88.85
2022-08-22T00:41:51.198Z,88.93
2022-08-22T00:43:29.192Z,89.34
2022-08-22T00:44:56.056Z,89.09
2022-08-22T00:46:07.934Z,88.48
2022-08-22T00:47:28.579Z,88.56
2022-08-22T00:48:54.168Z,88.37
2022-08-22T00:50:17.142Z,88.08
2022-08-22T00:51:38.418Z,88.35
2022-08-22T00:52:59.396Z,88.18
2022-08-22T00:54:20.606Z,88.38
2022-08-22T00:55:29.016Z,88.16
2022-08-22T00:56:36.936Z,87.53
2022-08-22T00:58:15.016Z,87.50
2022-08-22T00:59:38.534Z,87.53
2022-08-22T01:00:47.811Z,87.75
2022-08-22T01:02:11.884Z,87.82
2022-08-22T01:03:46.829Z,87.76
2022-08-22T01:04:58.277Z,87.17
2022-08-22T01:06:27.054Z,87.05
2022-08-22T01:07:42.095Z,87.02
2022-08-22T01:09:10.812Z,86.75
2022-08-22T01:10:33.688Z,87.01
2022-08-22T01:12:00.955Z,87.36
2022-08-22T01:13:16.070Z,87.42
2022-08-22T01:14:34.834Z,87.83
2022-08-22T01:15:38.758Z,87.93
2022-08-22T01:17:08.077Z,87.53
2022-08-22T01:18:30.700Z,87.44
2022-08-22T01:19:51.696Z,86.93
2022-08-22T01:21:20.846Z,87.06
2022-08-22T01:22:41.920Z,87.01
2022-08-22T01:24:21.731Z,87.29
2022-08-22T01:25:41.688Z,87.64
2022-08-22T01:27:12.030Z,87.97
2022-08-22T01:28:23.984Z,88.28
2022-08-22T01:29:43.573Z,88.54
2022-08-22T01:31:25.972Z,88.59
2022-08-22T01:32:56.888Z,88.55
2022-08-22T01:34:34.190Z,88.55
2022-08-22T01:36:17.310Z,88.45
2022-08-22T01:37:55.273Z,88.32
2022-08-22T01:39:36.917Z,88.02
2022-08-22T01:41:00.453Z,88.11
2022-08-22T01:42:16.267Z,88.34
2022-08-22T01:43:58.779Z,88.61
2022-08-22T01:44:54.308Z,88.51
2022-08-22T01:46:26.264Z,88.41
2022-08-22T01:47:41.361Z,88.21
2022-08-22T01:48:59.395Z,88.11
2022-08-22T01:51:24.450Z,88.24
2022-08-22T01:52:48.741Z,88.32
2022-08-22T01:54:00.968Z,88.44
2022-08-22T01:55:26.529Z,88.40
2022-08-22T01:56:35.685Z,88.58
2022-08-22T01:58:03.291Z,88.67
2022-08-22T01:59:10.910Z,88.79
2022-08-22T02:00:17.586Z,88.65
2022-08-22T02:01:30.881Z,88.30
2022-08-22T02:03:00.608Z,87.97
2022-08-22T02:04:15.704Z,87.75
2022-08-22T02:05:27.771Z,87.75
2022-08-22T02:06:45.599Z,88.09
2022-08-22T02:08:06.794Z,87.84
2022-08-22T02:09:29.348Z,87.72
2022-08-22T02:10:44.367Z,87.82
2022-08-22T02:11:50.236Z,87.93
2022-08-22T02:13:58.950Z,88.48
2022-08-22T02:16:45.561Z,87.71
2022-08-22T02:19:40.215Z,87.30
2022-08-22T02:21:15.381Z,87.16
2022-08-22T02:24:02.617Z,87.20
2022-08-22T02:26:47.060Z,87.42
2022-08-22T02:27:58.797Z,87.25
2022-08-22T02:29:16.736Z,87.43
2022-08-22T02:30:23.848Z,87.49
2022-08-22T02:31:38.708Z,87.53
2022-08-22T02:32:44.544Z,87.42
2022-08-22T02:33:58.660Z,87.08
2022-08-22T02:35:19.665Z,87.10
2022-08-22T02:36:31.530Z,87.68
2022-08-22T02:37:49.129Z,87.45
2022-08-22T02:39:13.837Z,86.71
2022-08-22T02:40:29.347Z,86.27
2022-08-22T02:41:40.913Z,85.82
2022-08-22T02:42:52.899Z,85.82
2022-08-22T02:43:58.639Z,85.38
2022-08-22T02:45:07.296Z,85.56
2022-08-22T02:46:31.692Z,85.17
2022-08-22T02:47:43.513Z,85.04
2022-08-22T02:49:14.016Z,85.03
2022-08-22T02:50:40.154Z,84.99
2022-08-22T02:51:54.875Z,85.14
2022-08-22T02:53:06.589Z,84.65
2022-08-22T02:54:23.583Z,84.70
2022-08-22T02:55:38.532Z,84.72
2022-08-22T02:56:47.753Z,84.54
2022-08-22T02:58:02.506Z,84.65
2022-08-22T02:59:33.044Z,84.85
2022-08-22T03:00:51.259Z,85.10
2022-08-22T03:01:55.244Z,86.01
2022-08-22T03:03:17.725Z,85.71
2022-08-22T03:04:26.683Z,85.56
2022-08-22T03:05:38.121Z,85.73
2022-08-22T03:06:44.157Z,85.81
2022-08-22T03:07:50.014Z,85.82
2022-08-22T03:10:21.471Z,85.51
2022-08-22T03:11:30.315Z,85.29
2022-08-22T03:12:57.436Z,85.01
2022-08-22T03:15:21.090Z,84.37
2022-08-22T03:16:27.793Z,84.65
2022-08-22T03:17:39.802Z,84.97
2022-08-22T03:18:57.669Z,84.76
2022-08-22T03:20:03.507Z,85.04
2022-08-22T03:21:18.834Z,84.42
2022-08-22T03:22:25.305Z,84.31
2022-08-22T03:23:49.692Z,84.68
2022-08-22T03:25:15.524Z,84.49
2022-08-22T03:26:39.212Z,84.02
2022-08-22T03:27:49.862Z,83.42
2022-08-22T03:29:02.574Z,83.17
2022-08-22T03:30:14.382Z,83.13
2022-08-22T03:31:23.340Z,83.15
2022-08-22T03:32:49.188Z,83.20
2022-08-22T03:34:23.822Z,82.93
2022-08-22T03:35:32.926Z,82.57
2022-08-22T03:36:35.985Z,82.26
2022-08-22T03:37:43.596Z,82.27
2022-08-22T03:38:55.138Z,82.35
2022-08-22T03:40:01.027Z,82.89
2022-08-22T03:41:33.129Z,83.85
2022-08-22T03:42:45.067Z,84.01
2022-08-22T03:44:10.884Z,83.46
2022-08-22T03:45:45.671Z,83.53
2022-08-22T03:47:08.221Z,83.55
2022-08-22T03:48:25.859Z,83.48
2022-08-22T03:49:51.019Z,83.86
2022-08-22T03:51:06.247Z,84.28
2022-08-22T03:52:24.242Z,83.64
2022-08-22T03:55:59.018Z,84.14
2022-08-22T03:57:10.937Z,83.70
2022-08-22T03:58:28.352Z,83.55
2022-08-22T03:59:52.390Z,82.51
2022-08-22T04:01:31.930Z,82.48
2022-08-22T04:02:49.480Z,82.10
2022-08-22T04:04:12.074Z,81.96
2022-08-22T04:05:34.776Z,81.61
2022-08-22T04:06:53.763Z,81.48
2022-08-22T04:08:32.350Z,81.10
2022-08-22T04:09:56.133Z,81.15
2022-08-22T04:11:36.912Z,81.24
2022-08-22T04:13:17.968Z,81.25
2022-08-22T04:14:52.962Z,80.77
2022-08-22T04:16:08.183Z,80.30
2022-08-22T04:17:39.745Z,79.67
2022-08-22T04:19:07.922Z,79.80
2022-08-22T04:20:34.072Z,79.77
2022-08-22T04:21:57.085Z,79.82
2022-08-22T04:23:31.789Z,79.53
2022-08-22T04:24:57.044Z,79.07
2022-08-22T04:26:12.121Z,78.86
2022-08-22T04:27:33.167Z,78.18
2022-08-22T04:28:39.543Z,78.29
2022-08-22T04:29:51.558Z,78.32
2022-08-22T04:30:57.627Z,78.90
2022-08-22T04:32:23.628Z,79.04
2022-08-22T04:33:38.349Z,78.66
2022-08-22T04:34:56.772Z,78.35
2022-08-22T04:36:05.696Z,78.37
2022-08-22T04:37:11.535Z,78.00
2022-08-22T04:38:35.724Z,77.88
2022-08-22T04:39:41.636Z,78.03
2022-08-22T04:40:53.748Z,78.11
2022-08-22T04:42:34.875Z,78.02
2022-08-22T04:43:52.087Z,77.96
2022-08-22T04:45:13.524Z,77.94
2022-08-22T04:46:19.889Z,77.87
2022-08-22T04:47:31.514Z,78.06
2022-08-22T04:48:40.658Z,77.89
2022-08-22T04:51:14.381Z,76.73
2022-08-22T04:52:34.768Z,76.78
2022-08-22T04:53:49.948Z,76.81
2022-08-22T04:55:18.671Z,76.53
2022-08-22T04:56:24.894Z,75.59
2022-08-22T04:57:33.656Z,74.72
2022-08-22T04:58:51.696Z,73.57
2022-08-22T05:00:00.669Z,73.15
2022-08-22T05:01:18.788Z,72.65
2022-08-22T05:02:24.438Z,72.10
2022-08-22T05:03:29.213Z,71.44
2022-08-22T05:04:53.466Z,70.85
2022-08-22T05:06:00.362Z,70.24
2022-08-22T05:07:12.131Z,70.02
2022-08-22T05:08:18.012Z,69.37
2022-08-22T05:09:24.949Z,69.84
2022-08-22T05:11:46.409Z,68.74
2022-08-22T05:12:52.387Z,68.22
2022-08-22T05:13:58.161Z,67.43
2022-08-22T05:15:16.054Z,67.16
2022-08-22T05:16:23.972Z,67.07
2022-08-22T05:17:29.617Z,66.57
2022-08-22T05:18:35.470Z,66.56
2022-08-22T05:19:41.339Z,66.62
2022-08-22T05:20:47.239Z,66.65
2022-08-22T05:21:51.863Z,66.35
2022-08-22T05:22:58.091Z,66.23
2022-08-22T05:24:11.053Z,66.74
2022-08-22T05:25:17.002Z,66.88
2022-08-22T05:26:21.111Z,67.04
2022-08-22T05:27:27.200Z,66.94
2022-08-22T05:28:34.817Z,66.69
2022-08-22T05:29:40.657Z,66.70
2022-08-22T05:30:46.600Z,66.94
2022-08-22T05:31:58.182Z,67.17
2022-08-22T05:33:20.614Z,66.93
2022-08-22T05:34:26.449Z,66.21
2022-08-22T05:35:35.341Z,66.17
2022-08-22T05:36:42.372Z,66.14
2022-08-22T05:37:49.144Z,66.07
2022-08-22T05:38:55.015Z,65.85
2022-08-22T05:39:59.875Z,65.82
2022-08-22T05:41:08.752Z,65.82
2022-08-22T05:42:17.302Z,66.28
2022-08-22T05:43:21.499Z,66.02
2022-08-22T05:44:29.560Z,65.99
2022-08-22T05:45:34.859Z,65.59
2022-08-22T05:46:46.506Z,65.56
2022-08-22T05:47:52.394Z,65.38
2022-08-22T05:48:58.298Z,65.20
2022-08-22T05:50:19.465Z,66.59
2022-08-22T05:51:25.471Z,66.96
2022-08-22T05:52:34.774Z,66.49
2022-08-22T05:53:40.517Z,65.78
2022-08-22T05:54:52.290Z,65.35
2022-08-22T05:56:04.151Z,64.49
2022-08-22T05:57:15.673Z,64.76
2022-08-22T05:58:28.490Z,65.76
2022-08-22T05:59:35.972Z,67.96
2022-08-22T06:00:41.955Z,67.37
2022-08-22T06:02:09.369Z,66.06
2022-08-22T06:03:36.482Z,64.60
2022-08-22T06:04:51.268Z,63.19
2022-08-22T06:05:57.010Z,62.73
2022-08-22T06:07:30.057Z,61.15
2022-08-22T06:08:39.188Z,60.20
2022-08-22T06:09:45.149Z,59.43
2022-08-22T06:10:50.642Z,59.88
2022-08-22T06:11:56.473Z,59.29
2022-08-22T06:14:51.809Z,58.51
2022-08-22T06:16:04.265Z,58.14
2022-08-22T06:17:13.164Z,57.13
2022-08-22T06:18:19.029Z,56.57
2022-08-22T06:19:21.626Z,56.11
2022-08-22T06:20:44.620Z,56.39
2022-08-22T06:21:49.839Z,56.66
2022-08-22T06:22:58.734Z,56.55
2022-08-22T06:24:03.042Z,56.36
2022-08-22T06:25:17.969Z,56.22
2022-08-22T06:26:21.534Z,56.84
2022-08-22T06:27:26.586Z,55.93
2022-08-22T06:28:37.622Z,55.71
2022-08-22T06:29:45.999Z,56.24
2022-08-22T06:30:51.476Z,57.29
2022-08-22T06:31:55.973Z,57.50
2022-08-22T06:33:02.091Z,57.25
2022-08-22T06:34:10.949Z,56.51
2022-08-22T06:35:16.823Z,56.70
2022-08-22T06:36:22.523Z,57.24
2022-08-22T06:37:28.327Z,58.34
2022-08-22T06:38:33.392Z,58.42
2022-08-22T06:39:39.249Z,58.65
2022-08-22T06:40:42.616Z,58.59
2022-08-22T06:41:48.540Z,58.97
2022-08-22T06:42:52.418Z,58.56
2022-08-22T06:43:56.838Z,59.19
2022-08-22T06:45:05.339Z,59.26
2022-08-22T06:46:10.480Z,59.13
2022-08-22T06:47:16.353Z,59.83
2022-08-22T06:48:21.659Z,60.14
2022-08-22T06:49:26.867Z,59.68
2022-08-22T06:50:39.150Z,59.18
2022-08-22T06:51:43.059Z,58.69
2022-08-22T06:53:06.911Z,58.92
2022-08-22T06:54:12.941Z,59.27
2022-08-22T06:55:16.286Z,60.56
2022-08-22T06:56:26.738Z,60.76
2022-08-22T06:57:38.744Z,59.92
2022-08-22T06:58:43.932Z,59.02
2022-08-22T06:59:47.428Z,59.17
2022-08-22T07:01:05.701Z,58.49
2022-08-22T07:02:23.530Z,58.63
2022-08-22T07:03:35.201Z,59.28
2022-08-22T07:04:38.030Z,58.90
2022-08-22T07:05:42.477Z,59.24
2022-08-22T07:06:48.553Z,59.79
2022-08-22T07:07:51.977Z,59.70
2022-08-22T07:08:54.998Z,59.50
2022-08-22T07:09:57.546Z,59.10
2022-08-22T07:11:15.791Z,59.38
2022-08-22T07:12:21.126Z,60.83
2022-08-22T07:13:26.390Z,59.98
2022-08-22T07:14:32.239Z,59.77
2022-08-22T07:15:37.994Z,60.48
2022-08-22T07:16:47.603Z,60.85
2022-08-22T07:17:53.199Z,60.33
2022-08-22T07:18:56.144Z,60.92
2022-08-22T07:20:11.129Z,60.72
2022-08-22T07:21:23.708Z,60.50
2022-08-22T07:22:32.179Z,59.97
2022-08-22T07:23:37.656Z,59.47
2022-08-22T07:24:43.495Z,58.76
2022-08-22T07:26:15.905Z,58.63
2022-08-22T07:27:41.778Z,58.12
2022-08-22T07:30:16.429Z,55.50
2022-08-22T07:31:33.122Z,55.71
2022-08-22T07:32:48.708Z,54.97
2022-08-22T07:33:54.574Z,53.24
2022-08-22T07:35:03.388Z,52.81
2022-08-22T07:36:41.957Z,52.58
2022-08-22T07:37:53.955Z,52.54
2022-08-22T07:39:18.130Z,52.88
2022-08-22T07:40:40.876Z,53.16
2022-08-22T07:41:54.428Z,53.49
2022-08-22T07:43:22.217Z,52.90
2022-08-22T07:44:27.982Z,52.29
2022-08-22T07:45:39.718Z,51.77
2022-08-22T07:46:54.897Z,51.78
2022-08-22T07:48:26.191Z,51.64
2022-08-22T07:49:30.050Z,51.27
2022-08-22T07:50:42.241Z,51.61
2022-08-22T07:53:02.124Z,50.86
2022-08-22T07:55:23.960Z,49.74
2022-08-22T07:56:30.397Z,49.54
2022-08-22T07:57:36.257Z,49.03
2022-08-22T07:58:40.882Z,49.36
2022-08-22T07:59:52.958Z,49.01
2022-08-22T08:00:56.671Z,49.72
2022-08-22T08:02:03.472Z,50.41
2022-08-22T08:03:08.672Z,50.49
2022-08-22T08:04:14.544Z,50.07
2022-08-22T08:05:18.156Z,48.83
2022-08-22T08:06:24.245Z,49.53
2022-08-22T08:07:28.931Z,48.72
2022-08-22T08:09:59.007Z,49.26
2022-08-22T08:11:02.950Z,49.70
2022-08-22T08:12:07.749Z,49.79
2022-08-22T08:13:16.678Z,48.50
2022-08-22T08:14:21.397Z,47.93
2022-08-22T08:15:24.995Z,47.28
2022-08-22T08:16:31.028Z,47.33
2022-08-22T08:17:35.446Z,47.51
2022-08-22T08:18:39.065Z,48.79
2022-08-22T08:19:42.841Z,49.85
2022-08-22T08:20:51.668Z,50.13
2022-08-22T08:21:55.937Z,49.71
2022-08-22T08:22:59.138Z,49.71
2022-08-22T08:24:02.733Z,50.19
2022-08-22T08:25:07.447Z,49.58
2022-08-22T08:26:16.450Z,49.88
2022-08-22T08:27:25.107Z,49.81
2022-08-22T08:28:28.506Z,49.45
2022-08-22T08:29:31.726Z,49.53
2022-08-22T08:30:37.929Z,48.37
2022-08-22T08:31:43.313Z,47.00
2022-08-22T08:32:50.737Z,47.25
2022-08-22T08:35:31.071Z,47.81
2022-08-22T08:36:38.918Z,47.72
2022-08-22T08:39:14.957Z,48.54
2022-08-22T08:40:22.284Z,47.81
2022-08-22T08:41:28.689Z,48.08
2022-08-22T08:42:51.445Z,49.17
2022-08-22T08:44:18.432Z,49.49
2022-08-22T08:45:39.519Z,49.66
2022-08-22T08:47:06.511Z,48.51
2022-08-22T08:48:41.679Z,48.73
2022-08-22T08:50:21.746Z,49.71
2022-08-22T08:51:46.192Z,48.52
2022-08-22T08:52:54.988Z,47.30
2022-08-22T08:54:23.435Z,47.16
2022-08-22T08:55:50.865Z,47.23
2022-08-22T08:57:11.902Z,47.42
2022-08-22T08:58:34.442Z,46.44
2022-08-22T08:59:46.158Z,46.11
2022-08-22T09:00:52.274Z,46.87
2022-08-22T09:02:07.270Z,46.93
2022-08-22T09:03:31.319Z,47.06
2022-08-22T09:04:55.008Z,47.02
2022-08-22T09:06:13.111Z,45.97
2022-08-22T09:07:40.585Z,45.59
2022-08-22T09:08:56.056Z,45.19
2022-08-22T09:10:32.142Z,45.89
2022-08-22T09:11:56.303Z,45.80
2022-08-22T09:13:26.195Z,46.88
2022-08-22T09:14:47.581Z,46.92
2022-08-22T09:16:04.938Z,45.74
2022-08-22T09:17:28.920Z,46.10
2022-08-22T09:19:00.953Z,46.61
2022-08-22T09:20:42.627Z,46.68
2022-08-22T09:21:49.178Z,46.53
2022-08-22T09:23:11.010Z,47.62
2022-08-22T09:24:33.396Z,47.78
2022-08-22T09:27:13.447Z,46.76
2022-08-22T09:28:23.573Z,46.94
2022-08-22T09:31:22.348Z,46.81
2022-08-22T09:32:16.921Z,47.18
2022-08-22T09:33:23.749Z,47.24
2022-08-22T09:34:30.809Z,46.92
2022-08-22T09:35:42.438Z,47.36
2022-08-22T09:36:48.924Z,47.07
2022-08-22T09:38:14.559Z,48.73
2022-08-22T09:39:23.537Z,48.09
2022-08-22T09:40:15.989Z,47.02
2022-08-22T09:40:36.122Z,48.11
2022-08-22T09:41:46.201Z,46.91
2022-08-22T09:43:06.193Z,47.04
2022-08-22T09:44:15.614Z,47.40
2022-08-22T09:45:33.437Z,46.75
2022-08-22T09:46:54.547Z,47.16
2022-08-22T09:48:14.188Z,47.83
2022-08-22T09:49:21.150Z,47.43
2022-08-22T09:50:39.951Z,47.73
2022-08-22T09:52:14.297Z,46.47
2022-08-22T09:53:19.491Z,47.15
2022-08-22T09:54:49.527Z,48.00
2022-08-22T09:55:58.136Z,48.14
2022-08-22T09:57:07.160Z,47.70
2022-08-22T09:58:15.984Z,47.65
2022-08-22T09:59:38.395Z,47.78
2022-08-22T10:00:55.139Z,47.75
2022-08-22T10:02:07.348Z,47.13
2022-08-22T10:03:20.950Z,46.84
2022-08-22T10:04:33.087Z,47.22
2022-08-22T10:05:46.920Z,47.74
2022-08-22T10:07:14.143Z,47.60
2022-08-22T10:08:26.546Z,47.34
2022-08-22T10:09:41.352Z,47.59
2022-08-22T10:10:54.973Z,48.10
2022-08-22T10:13:26.921Z,47.38
2022-08-22T10:14:50.454Z,47.68
2022-08-22T10:15:56.854Z,48.22
2022-08-22T10:17:09.355Z,48.74
2022-08-22T10:18:24.340Z,48.91
2022-08-22T10:19:38.205Z,48.90
2022-08-22T10:20:47.084Z,48.16
2022-08-22T10:22:20.629Z,48.75
2022-08-22T10:25:10.757Z,48.20
2022-08-22T10:26:26.090Z,48.37
2022-08-22T10:27:56.249Z,48.71
2022-08-22T10:29:17.375Z,48.31
2022-08-22T10:30:23.540Z,48.26
2022-08-22T10:31:29.543Z,48.45
2022-08-22T10:32:50.231Z,48.13
2022-08-22T10:34:15.764Z,48.01
2022-08-22T10:35:44.562Z,48.11
2022-08-22T10:37:10.292Z,48.09
2022-08-22T10:38:22.413Z,47.19
2022-08-22T10:41:10.572Z,46.74
2022-08-22T10:42:31.219Z,46.21
2022-08-22T10:43:41.413Z,46.32
2022-08-22T10:44:56.604Z,46.84
2022-08-22T10:46:06.644Z,46.25
2022-08-22T10:47:15.728Z,46.57
2022-08-22T10:48:35.463Z,46.10
2022-08-22T10:49:44.627Z,46.95
2022-08-22T10:50:53.593Z,46.75
2022-08-22T10:52:14.816Z,46.81
2022-08-22T10:53:16.171Z,47.46
2022-08-22T10:54:51.225Z,47.67
2022-08-22T10:55:57.143Z,47.23
2022-08-22T10:57:09.353Z,45.20
2022-08-22T10:58:27.324Z,44.79
2022-08-22T11:00:58.713Z,45.31
2022-08-22T11:02:13.684Z,45.96
2022-08-22T11:03:23.321Z,46.27
2022-08-22T11:04:30.273Z,46.23
2022-08-22T11:05:36.061Z,46.38
2022-08-22T11:06:51.068Z,46.40
2022-08-22T11:08:21.399Z,45.67
2022-08-22T11:09:28.091Z,45.04
2022-08-22T11:10:58.886Z,44.26
2022-08-22T11:12:08.952Z,44.37
2022-08-22T11:13:32.844Z,44.63
2022-08-22T11:14:50.917Z,44.59
2022-08-22T11:16:13.479Z,43.55
2022-08-22T11:17:34.605Z,43.09
2022-08-22T11:19:02.112Z,43.73
2022-08-22T11:20:14.233Z,43.88
2022-08-22T11:22:48.253Z,42.47
2022-08-22T11:23:57.504Z,41.82
2022-08-22T11:25:08.240Z,42.56
2022-08-22T11:29:14.500Z,43.65
2022-08-22T11:30:44.998Z,43.55
2022-08-22T11:31:51.662Z,43.50
2022-08-22T11:33:19.591Z,44.38
2022-08-22T11:34:25.674Z,44.35
2022-08-22T11:35:40.786Z,44.09
2022-08-22T11:36:53.563Z,43.60
2022-08-22T11:38:05.521Z,43.80
2022-08-22T11:39:36.158Z,43.77
2022-08-22T11:40:49.898Z,44.61
2022-08-22T11:42:00.672Z,44.81
2022-08-22T11:43:32.814Z,44.03
2022-08-22T11:44:53.298Z,44.51
2022-08-22T11:45:59.316Z,43.86
2022-08-22T11:47:05.944Z,43.51
2022-08-22T11:48:41.068Z,43.87
2022-08-22T11:50:13.314Z,43.38
2022-08-22T11:51:26.879Z,44.09
2022-08-22T11:52:51.938Z,44.19
2022-08-22T11:54:14.170Z,44.44
2022-08-22T11:55:34.864Z,44.08
2022-08-22T11:56:41.667Z,43.48
2022-08-22T11:57:48.963Z,43.32
2022-08-22T11:59:01.757Z,43.89
2022-08-22T12:00:23.321Z,43.36
2022-08-22T12:01:39.959Z,43.42
2022-08-22T12:02:58.283Z,43.49
2022-08-22T12:04:13.512Z,44.08
2022-08-22T12:05:24.635Z,43.67
2022-08-22T12:06:49.851Z,43.42
2022-08-22T12:08:02.088Z,42.54
2022-08-22T12:09:11.597Z,42.62
2022-08-22T12:10:17.960Z,42.77
2022-08-22T12:11:26.828Z,43.26
2022-08-22T12:12:38.852Z,43.52
2022-08-22T12:14:02.458Z,43.25
2022-08-22T12:15:16.658Z,43.19
2022-08-22T12:16:45.905Z,43.57
2022-08-22T12:18:10.408Z,43.27
2022-08-22T12:19:25.717Z,43.30
2022-08-22T12:20:41.047Z,43.22
2022-08-22T12:22:24.390Z,43.57
2022-08-22T12:23:49.715Z,43.94
2022-08-22T12:25:08.711Z,43.77
2022-08-22T12:26:22.071Z,43.84
2022-08-22T12:27:55.414Z,44.19
2022-08-22T12:29:33.430Z,44.02
2022-08-22T12:32:10.407Z,43.45
2022-08-22T12:33:25.389Z,43.47
2022-08-22T12:34:41.621Z,43.66
2022-08-22T12:35:56.512Z,43.30
2022-08-22T12:37:17.990Z,43.25
2022-08-22T12:38:37.435Z,42.12
2022-08-22T12:39:41.261Z,42.19
2022-08-22T12:41:14.545Z,42.28
2022-08-22T12:42:48.255Z,42.35
2022-08-22T12:44:03.105Z,42.94
2022-08-22T12:45:35.213Z,42.91
2022-08-22T12:46:55.303Z,42.29
2022-08-22T12:48:16.031Z,42.06
2022-08-22T12:49:40.001Z,42.21
2022-08-22T12:51:17.484Z,42.62
2022-08-22T12:52:37.264Z,42.99
2022-08-22T12:54:07.205Z,42.86
2022-08-22T12:55:25.780Z,42.05
2022-08-22T12:56:34.562Z,43.24
2022-08-22T12:57:44.125Z,42.79
2022-08-22T12:59:09.540Z,44.10
2022-08-22T13:00:22.986Z,43.69
2022-08-22T13:01:33.742Z,43.57
2022-08-22T13:02:36.029Z,43.69
2022-08-22T13:03:50.817Z,43.68
2022-08-22T13:04:59.756Z,43.40
2022-08-22T13:06:05.550Z,43.17
2022-08-22T13:07:19.671Z,43.27
2022-08-22T13:08:34.218Z,43.41
2022-08-22T13:09:39.883Z,43.99
2022-08-22T13:10:53.586Z,43.99
2022-08-22T13:12:06.516Z,44.01
2022-08-22T13:13:15.416Z,42.83
2022-08-22T13:14:25.902Z,42.48
2022-08-22T13:15:41.914Z,42.50
2022-08-22T13:16:48.907Z,42.13
2022-08-22T13:17:52.535Z,42.17
2022-08-22T13:19:07.739Z,42.04
2022-08-22T13:20:16.399Z,41.48
2022-08-22T13:21:31.999Z,40.94
2022-08-22T13:22:36.431Z,41.09
2022-08-22T13:23:46.712Z,41.01
2022-08-22T13:24:58.261Z,41.13
2022-08-22T13:26:33.178Z,40.85
2022-08-22T13:27:27.014Z,40.94
2022-08-22T13:28:33.776Z,41.06
2022-08-22T13:29:44.223Z,40.68
2022-08-22T13:30:48.500Z,40.60
2022-08-22T13:31:55.161Z,40.82
2022-08-22T13:34:30.398Z,41.18
2022-08-22T13:35:37.220Z,41.54
2022-08-22T13:36:51.582Z,41.63
2022-08-22T13:37:53.398Z,41.51
2022-08-22T13:39:05.465Z,41.37
2022-08-22T13:40:30.417Z,41.72
2022-08-22T13:41:39.183Z,41.75
2022-08-22T13:42:47.878Z,42.35
2022-08-22T13:44:10.599Z,42.59
2022-08-22T13:45:22.803Z,42.39
2022-08-22T13:46:28.750Z,42.59
2022-08-22T13:47:34.913Z,42.89
2022-08-22T13:48:49.705Z,42.21
2022-08-22T13:50:04.717Z,42.29
2022-08-22T13:51:17.867Z,41.81
2022-08-22T13:52:46.023Z,41.48
2022-08-22T13:54:00.933Z,41.58
2022-08-22T13:55:19.700Z,41.88
2022-08-22T13:56:26.017Z,41.65
2022-08-22T13:57:43.693Z,41.30
2022-08-22T13:58:50.004Z,41.28
2022-08-22T14:00:08.014Z,41.31
2022-08-22T14:01:25.426Z,41.13
2022-08-22T14:02:37.160Z,41.62
2022-08-22T14:03:49.130Z,41.96
2022-08-22T14:04:54.284Z,42.27
2022-08-22T14:06:32.388Z,42.61
2022-08-22T14:07:07.610Z,42.42
2022-08-22T14:08:19.654Z,42.62
2022-08-22T14:09:37.297Z,43.00
2022-08-22T14:10:43.989Z,43.33
2022-08-22T14:11:56.988Z,43.99
2022-08-22T14:13:12.822Z,44.07
2022-08-22T14:14:28.936Z,44.41
2022-08-22T14:15:44.692Z,44.69
2022-08-22T14:16:48.818Z,44.89
2022-08-22T14:17:54.599Z,45.15
2022-08-22T14:19:06.851Z,45.41
2022-08-22T14:20:13.764Z,45.01
2022-08-22T14:21:21.577Z,44.64
2022-08-22T14:22:31.736Z,44.47
2022-08-22T14:23:31.739Z,44.58
2022-08-22T14:24:46.122Z,44.89
2022-08-22T14:25:49.283Z,45.31
2022-08-22T14:26:57.867Z,45.81
2022-08-22T14:28:03.210Z,45.90
2022-08-22T14:30:24.571Z,45.56
2022-08-22T14:31:29.281Z,45.77
2022-08-22T14:32:41.811Z,46.03
2022-08-22T14:33:59.999Z,46.28
2022-08-22T14:35:35.156Z,46.40
2022-08-22T14:36:59.529Z,46.53
2022-08-22T14:38:17.497Z,46.83
2022-08-22T14:39:29.155Z,46.78
2022-08-22T14:40:35.838Z,47.13
2022-08-22T14:41:55.765Z,47.16
2022-08-22T14:42:57.217Z,47.41
2022-08-22T14:44:03.101Z,47.40
2022-08-22T14:45:21.778Z,47.59
2022-08-22T14:46:28.241Z,47.66
2022-08-22T14:47:55.187Z,47.88
2022-08-22T14:48:46.016Z,47.44
2022-08-22T14:49:55.693Z,47.81
2022-08-22T14:51:04.193Z,47.93
2022-08-22T14:52:10.352Z,48.31
2022-08-22T14:53:30.422Z,48.66
2022-08-22T14:54:35.288Z,48.95
2022-08-22T14:55:38.945Z,48.94
2022-08-22T14:56:45.118Z,48.73
2022-08-22T14:57:53.975Z,48.83
2022-08-22T14:59:02.642Z,48.93
2022-08-22T15:00:06.444Z,48.88
2022-08-22T15:01:11.881Z,49.08
2022-08-22T15:02:17.717Z,48.77
2022-08-22T15:03:23.737Z,48.59
2022-08-22T15:04:35.359Z,48.64
2022-08-22T15:05:50.053Z,48.52
2022-08-22T15:06:57.875Z,48.83
2022-08-22T15:08:00.626Z,48.94
2022-08-22T15:09:09.877Z,48.78
2022-08-22T15:10:25.749Z,48.75
2022-08-22T15:11:42.418Z,48.74
2022-08-22T15:12:49.724Z,48.86
2022-08-22T15:14:12.557Z,48.38
2022-08-22T15:15:49.833Z,48.53
2022-08-22T15:16:53.169Z,48.85
2022-08-22T15:17:55.544Z,49.02
2022-08-22T15:18:57.975Z,48.82
2022-08-22T15:20:12.951Z,48.94
2022-08-22T15:21:28.126Z,49.02
2022-08-22T15:22:30.923Z,49.28
2022-08-22T15:23:45.069Z,49.58
2022-08-22T15:24:43.398Z,49.48
2022-08-22T15:26:05.367Z,49.50
2022-08-22T15:27:08.362Z,49.54
2022-08-22T15:28:20.454Z,49.70
2022-08-22T15:29:30.296Z,49.87
2022-08-22T15:30:47.678Z,49.96
2022-08-22T15:31:56.613Z,50.20
2022-08-22T15:33:14.143Z,50.12
2022-08-22T15:34:35.071Z,50.25
2022-08-22T15:35:40.338Z,50.08
2022-08-22T15:38:30.377Z,50.74
2022-08-22T15:39:38.967Z,50.64
2022-08-22T15:40:45.736Z,50.76
2022-08-22T15:41:48.777Z,50.99
2022-08-22T15:42:52.966Z,51.27
2022-08-22T15:44:17.211Z,51.18
2022-08-22T15:46:44.993Z,51.52
2022-08-22T15:47:52.357Z,52.00
2022-08-22T15:49:05.435Z,52.04
2022-08-22T15:50:14.758Z,51.57
2022-08-22T15:51:39.367Z,53.97
2022-08-22T15:53:20.376Z,53.07
2022-08-22T15:54:26.277Z,53.12
2022-08-22T15:55:28.723Z,53.45
2022-08-22T15:56:41.787Z,52.62
2022-08-22T15:58:02.469Z,53.29
2022-08-22T15:59:24.305Z,52.98
2022-08-22T16:00:46.570Z,53.25
2022-08-22T16:03:06.371Z,54.43
2022-08-22T16:04:12.299Z,54.77
2022-08-22T16:05:22.816Z,54.71
2022-08-22T16:06:49.002Z,55.13
2022-08-22T16:08:14.975Z,54.72
2022-08-22T16:09:42.682Z,54.00
2022-08-22T16:10:56.979Z,53.68
2022-08-22T16:12:02.773Z,54.78
2022-08-22T16:13:19.030Z,54.35
2022-08-22T16:14:24.991Z,54.26
2022-08-22T16:15:55.934Z,55.50
2022-08-22T16:17:02.375Z,54.67
2022-08-22T16:18:04.912Z,54.36
2022-08-22T16:19:10.767Z,54.25
2022-08-22T16:20:19.930Z,54.83
2022-08-22T16:21:25.644Z,54.38
2022-08-22T16:22:58.924Z,54.54
2022-08-22T16:24:04.861Z,55.07
2022-08-22T16:25:10.725Z,55.65
2022-08-22T16:26:19.420Z,54.97
2022-08-22T16:27:28.554Z,55.45
2022-08-22T16:28:59.173Z,55.33
2022-08-22T16:30:07.903Z,55.49
2022-08-22T16:31:28.776Z,55.66
2022-08-22T16:32:32.769Z,55.99
2022-08-22T16:33:38.119Z,56.58
2022-08-22T16:34:42.915Z,56.74
2022-08-22T16:36:06.194Z,56.47
2022-08-22T16:37:16.466Z,57.17
2022-08-22T16:38:28.157Z,57.40
2022-08-22T16:39:51.706Z,56.21
2022-08-22T16:40:54.086Z,57.02
2022-08-22T16:42:18.097Z,57.22
2022-08-22T16:43:21.111Z,57.52